Terminal Aerodrome Forecast
Issued by NWS Wilmington, OH

Current Version | Previous Version | Graphics & Text | Print | Product List | Glossary On
Versions: 1 2 3 4 5 6 7 8 9 10 11 12 13 14 15 16 17 18 19
163
FTUS41 KILN 071122
TAFDAY
TAF
KDAY 071122Z 0712/0812 21010KT P6SM FEW250
     FM071500 21014G22KT P6SM BKN150
     FM072300 20012KT P6SM BKN050 OVC120
     FM080300 20010KT P6SM -RA SCT025 OVC035
     FM080900 26010KT P6SM BKN025 OVC100=

USA.gov is the U.S. government's official web portal to all federal, state and local government web resources and services.